Tennant Creek, Australia
Current Conditions -  °F | °C
As of 4:00 AM on Friday 28 Nov 2014 (Local Time) from YTNK Reporting Station
Broken Clouds Broken Clouds  
Wind Chill: 82°   Ceiling: 9200
Heat Index: 82°   Visibility: 6mi
Dew Point: 57°   Wind: 10mph
Humidity: 42%   Direction: 70°ENE
Pressure: 29.85"   Gusts: NA
Location:  19.65°S, 134.19°E
Report Text: YTNK 271900Z AUTO 07009KT 9999 // BKN092 28/14 Q1011
Loading
Personal Weather Stations






























Interactive Weather Map New forecast layout! Learn more

10-Day Weather Forecast

Advertisements
Track Severe Weather on mobile